createdAt,value
2018-11-26T00:00:34.141Z,80.63
2018-11-26T00:03:02.761Z,80.83
2018-11-26T00:05:31.270Z,80.94
2018-11-26T00:07:59.806Z,81.30
2018-11-26T00:10:39.423Z,81.56
2018-11-26T00:13:07.959Z,80.87
2018-11-26T00:15:36.463Z,81.10
2018-11-26T00:18:05.397Z,80.54
2018-11-26T00:20:33.920Z,80.79
2018-11-26T00:23:02.437Z,80.59
2018-11-26T00:25:30.964Z,80.98
2018-11-26T00:27:59.848Z,81.06
2018-11-26T00:30:28.349Z,80.90
2018-11-26T00:32:56.925Z,80.29
2018-11-26T00:35:25.500Z,80.91
2018-11-26T00:37:54.439Z,80.55
2018-11-26T00:40:22.954Z,80.05
2018-11-26T00:42:51.414Z,80.01
2018-11-26T00:45:19.950Z,79.93
2018-11-26T00:47:48.449Z,80.19
2018-11-26T00:50:16.973Z,80.11
2018-11-26T00:52:45.507Z,79.58
2018-11-26T00:55:14.055Z,79.60
2018-11-26T00:57:42.523Z,80.17
2018-11-26T01:00:12.980Z,80.38
2018-11-26T01:02:41.494Z,79.64
2018-11-26T01:05:18.560Z,80.09
2018-11-26T01:07:47.054Z,80.17
2018-11-26T01:10:15.598Z,79.58
2018-11-26T01:12:44.078Z,79.29
2018-11-26T01:15:12.660Z,79.78
2018-11-26T01:17:41.202Z,80.19
2018-11-26T01:20:09.718Z,80.06
2018-11-26T01:22:38.199Z,79.72
2018-11-26T01:25:06.809Z,80.01
2018-11-26T01:27:35.359Z,79.75
2018-11-26T01:30:03.981Z,79.68
2018-11-26T01:32:32.482Z,79.04
2018-11-26T01:35:00.987Z,79.45
2018-11-26T01:37:29.504Z,79.76
2018-11-26T01:39:58.030Z,80.10
2018-11-26T01:42:26.526Z,79.84
2018-11-26T01:44:55.044Z,79.46
2018-11-26T01:47:23.576Z,79.86
2018-11-26T01:49:54.243Z,79.01
2018-11-26T01:52:23.690Z,79.53
2018-11-26T01:54:52.189Z,79.49
2018-11-26T01:57:20.672Z,78.93
2018-11-26T01:59:49.191Z,79.76
2018-11-26T02:02:17.671Z,79.64
2018-11-26T02:04:46.190Z,79.55
2018-11-26T02:07:14.698Z,79.48
2018-11-26T02:09:43.246Z,79.83
2018-11-26T02:12:11.777Z,79.09
2018-11-26T02:14:40.320Z,79.73
2018-11-26T02:17:08.795Z,79.48
2018-11-26T02:19:37.364Z,79.34
2018-11-26T02:22:05.846Z,79.27
2018-11-26T02:24:34.566Z,79.31
2018-11-26T02:27:03.106Z,79.13
2018-11-26T02:29:31.694Z,79.72
2018-11-26T02:32:00.226Z,79.03
2018-11-26T02:34:28.743Z,79.61
2018-11-26T02:36:57.262Z,79.44
2018-11-26T02:39:25.744Z,79.22
2018-11-26T02:41:54.262Z,79.83
2018-11-26T02:44:22.757Z,79.27
2018-11-26T02:46:51.287Z,79.87
2018-11-26T02:49:19.766Z,79.38
2018-11-26T02:51:48.266Z,79.57
2018-11-26T02:54:16.794Z,79.30
2018-11-26T02:56:45.309Z,79.26
2018-11-26T02:59:13.799Z,79.77
2018-11-26T03:01:42.353Z,79.23
2018-11-26T03:04:14.511Z,79.34
2018-11-26T03:06:43.239Z,79.43
2018-11-26T03:09:11.770Z,80.07
2018-11-26T03:11:40.302Z,79.51
2018-11-26T03:14:08.834Z,79.04
2018-11-26T03:16:37.384Z,79.28
2018-11-26T03:19:06.305Z,79.70
2018-11-26T03:21:34.856Z,79.70
2018-11-26T03:24:03.351Z,79.29
2018-11-26T03:26:31.860Z,79.29
2018-11-26T03:29:00.330Z,79.43
2018-11-26T03:31:28.856Z,79.15
2018-11-26T03:33:57.357Z,79.43
2018-11-26T03:36:25.885Z,79.51
2018-11-26T03:38:55.234Z,79.41
2018-11-26T03:41:24.190Z,79.24
2018-11-26T03:43:52.712Z,78.80
2018-11-26T03:46:21.214Z,79.03
2018-11-26T03:48:49.706Z,79.01
2018-11-26T03:51:18.286Z,79.16
2018-11-26T03:55:15.907Z,78.74
2018-11-26T03:57:44.430Z,78.77
2018-11-26T04:00:14.165Z,79.31
2018-11-26T04:02:42.720Z,79.29
2018-11-26T04:05:11.741Z,78.96
2018-11-26T04:07:40.439Z,79.51
2018-11-26T04:10:12.039Z,79.38
2018-11-26T04:12:40.790Z,78.66
2018-11-26T04:15:13.356Z,78.68
2018-11-26T04:17:41.906Z,78.76
2018-11-26T04:20:10.455Z,79.00
2018-11-26T04:22:38.974Z,78.84
2018-11-26T04:25:08.736Z,79.58
2018-11-26T04:27:37.265Z,79.65
2018-11-26T04:30:08.057Z,79.14
2018-11-26T04:34:01.015Z,79.50
2018-11-26T04:36:29.569Z,79.76
2018-11-26T04:38:58.077Z,79.55
2018-11-26T04:41:26.615Z,79.61
2018-11-26T04:43:55.094Z,79.70
2018-11-26T04:46:24.269Z,80.17
2018-11-26T04:48:52.875Z,80.61
2018-11-26T04:51:21.333Z,80.26
2018-11-26T04:53:49.850Z,80.12
2018-11-26T04:56:18.375Z,80.28
2018-11-26T04:58:46.937Z,80.50
2018-11-26T05:01:15.415Z,80.62
2018-11-26T05:03:43.946Z,79.89
2018-11-26T05:06:12.426Z,80.27
2018-11-26T05:08:40.951Z,79.50
2018-11-26T05:11:09.448Z,80.79
2018-11-26T05:13:37.995Z,80.48
2018-11-26T05:16:06.881Z,81.27
2018-11-26T05:18:35.423Z,81.47
2018-11-26T05:21:03.983Z,81.76
2018-11-26T05:23:32.565Z,81.32
2018-11-26T05:26:01.296Z,81.61
2018-11-26T05:28:29.833Z,81.76
2018-11-26T05:30:58.322Z,81.09
2018-11-26T05:33:26.848Z,81.52
2018-11-26T05:35:55.334Z,81.28
2018-11-26T05:38:23.878Z,81.71
2018-11-26T05:40:52.386Z,82.23
2018-11-26T05:43:20.907Z,81.83
2018-11-26T05:45:49.389Z,81.94
2018-11-26T05:48:17.915Z,82.79
2018-11-26T05:50:46.417Z,82.83
2018-11-26T05:53:14.941Z,82.46
2018-11-26T05:55:43.434Z,82.52
2018-11-26T05:58:11.930Z,82.95
2018-11-26T06:00:40.411Z,82.90
2018-11-26T06:03:08.935Z,83.75
2018-11-26T06:05:37.456Z,82.94
2018-11-26T06:08:06.473Z,83.12
2018-11-26T06:10:34.983Z,83.35
2018-11-26T06:13:03.513Z,83.91
2018-11-26T06:15:32.009Z,83.74
2018-11-26T06:18:00.556Z,84.17
2018-11-26T06:20:29.067Z,84.43
2018-11-26T06:22:57.586Z,84.97
2018-11-26T06:25:26.075Z,84.96
2018-11-26T06:27:54.631Z,85.69
2018-11-26T06:30:23.138Z,85.87
2018-11-26T06:32:51.605Z,85.83
2018-11-26T06:35:21.460Z,86.28
2018-11-26T06:37:49.969Z,85.83
2018-11-26T06:40:18.603Z,86.07
2018-11-26T06:42:47.122Z,86.45
2018-11-26T06:45:17.776Z,85.86
2018-11-26T06:47:46.257Z,86.20
2018-11-26T06:50:16.018Z,86.71
2018-11-26T06:52:44.681Z,87.15
2018-11-26T06:55:15.413Z,86.92
2018-11-26T06:57:43.892Z,86.79
2018-11-26T07:00:15.561Z,87.21
2018-11-26T07:02:44.411Z,86.75
2018-11-26T07:05:17.021Z,87.04
2018-11-26T07:07:48.365Z,87.29
2018-11-26T07:10:17.534Z,86.41
2018-11-26T07:12:46.006Z,86.81
2018-11-26T07:15:16.285Z,86.60
2018-11-26T07:17:44.810Z,86.15
2018-11-26T07:20:16.297Z,86.31
2018-11-26T07:22:44.853Z,86.42
2018-11-26T07:25:14.515Z,86.75
2018-11-26T07:27:43.925Z,86.83
2018-11-26T07:30:21.238Z,86.96
2018-11-26T07:32:49.690Z,86.15
2018-11-26T07:35:18.220Z,86.63
2018-11-26T07:37:46.718Z,86.19
2018-11-26T07:40:24.365Z,85.72
2018-11-26T07:42:55.146Z,85.99
2018-11-26T07:45:23.658Z,86.26
2018-11-26T07:47:52.154Z,86.23
2018-11-26T07:50:20.658Z,86.42
2018-11-26T07:52:49.141Z,87.04
2018-11-26T07:55:18.881Z,86.17
2018-11-26T07:57:47.367Z,86.50
2018-11-26T08:00:17.114Z,86.32
2018-11-26T08:02:45.965Z,87.06
2018-11-26T08:05:18.447Z,87.24
2018-11-26T08:07:46.997Z,87.03
2018-11-26T08:10:17.624Z,86.72
2018-11-26T08:12:46.903Z,86.67
2018-11-26T08:15:20.286Z,86.90
2018-11-26T08:17:48.781Z,86.35
2018-11-26T08:20:17.292Z,86.43
2018-11-26T08:22:45.870Z,86.58
2018-11-26T08:25:16.486Z,86.32
2018-11-26T08:27:45.984Z,86.78
2018-11-26T08:30:17.316Z,87.26
2018-11-26T08:32:47.962Z,87.43
2018-11-26T08:35:17.162Z,87.61
2018-11-26T08:37:50.971Z,87.67
2018-11-26T08:40:26.275Z,87.49
2018-11-26T08:43:15.370Z,87.27
2018-11-26T08:45:52.314Z,87.58
2018-11-26T08:48:25.991Z,87.43
2018-11-26T08:50:55.307Z,88.36
2018-11-26T08:53:23.995Z,88.14
2018-11-26T08:55:52.525Z,88.09
2018-11-26T08:58:21.047Z,88.69
2018-11-26T09:00:54.792Z,88.48
2018-11-26T09:03:23.318Z,88.50
2018-11-26T09:05:55.861Z,88.15
2018-11-26T09:08:24.338Z,87.54
2018-11-26T09:10:52.843Z,88.57
2018-11-26T09:13:21.325Z,88.61
2018-11-26T09:15:49.823Z,88.34
2018-11-26T09:18:18.330Z,88.16
2018-11-26T09:20:46.851Z,87.61
2018-11-26T09:23:15.346Z,87.65
2018-11-26T09:25:43.877Z,88.19
2018-11-26T09:28:12.673Z,87.67
2018-11-26T09:30:41.197Z,87.92
2018-11-26T09:33:09.704Z,87.36
2018-11-26T09:35:38.394Z,87.44
2018-11-26T09:38:06.963Z,87.64
2018-11-26T09:40:35.447Z,87.61
2018-11-26T09:43:03.998Z,87.46
2018-11-26T09:45:35.967Z,87.62
2018-11-26T09:48:01.054Z,87.75
2018-11-26T09:50:29.511Z,87.91
2018-11-26T09:52:58.035Z,87.31
2018-11-26T09:55:26.529Z,87.25
2018-11-26T09:57:55.027Z,87.35
2018-11-26T10:00:23.537Z,87.64
2018-11-26T10:02:52.752Z,86.71
2018-11-26T10:05:23.370Z,87.29
2018-11-26T10:07:51.895Z,86.74
2018-11-26T10:10:20.385Z,86.90
2018-11-26T10:12:48.870Z,87.04
2018-11-26T10:15:21.412Z,87.27
2018-11-26T10:17:49.985Z,86.80
2018-11-26T10:20:18.518Z,87.93
2018-11-26T10:22:47.462Z,86.74
2018-11-26T10:25:17.065Z,86.94
2018-11-26T10:27:45.599Z,87.25
2018-11-26T10:30:15.037Z,87.17
2018-11-26T10:32:44.017Z,86.91
2018-11-26T10:35:14.403Z,86.37
2018-11-26T10:37:43.004Z,87.59
2018-11-26T10:40:12.612Z,87.01
2018-11-26T10:42:41.190Z,87.04
2018-11-26T10:45:14.121Z,86.75
2018-11-26T10:47:42.739Z,86.73
2018-11-26T10:50:15.088Z,87.09
2018-11-26T10:52:44.686Z,86.30
2018-11-26T10:55:15.800Z,86.36
2018-11-26T10:57:44.490Z,86.82
2018-11-26T11:00:20.582Z,86.55
2018-11-26T11:02:49.471Z,86.04
2018-11-26T11:05:18.063Z,85.94
2018-11-26T11:07:46.730Z,85.62
2018-11-26T11:10:18.642Z,84.91
2018-11-26T11:12:47.166Z,85.71
2018-11-26T11:15:15.682Z,85.58
2018-11-26T11:17:44.307Z,86.03
2018-11-26T11:20:16.035Z,86.04
2018-11-26T11:22:44.647Z,85.49
2018-11-26T11:25:15.357Z,85.29
2018-11-26T11:27:44.941Z,85.61
2018-11-26T11:30:25.547Z,85.16
2018-11-26T11:32:53.857Z,85.37
2018-11-26T11:35:22.423Z,85.25
2018-11-26T11:37:51.631Z,85.10
2018-11-26T11:40:28.665Z,85.31
2018-11-26T11:42:57.835Z,85.92
2018-11-26T11:45:26.849Z,85.25
2018-11-26T11:47:55.415Z,85.25
2018-11-26T11:50:24.020Z,85.76
2018-11-26T11:52:52.616Z,85.83
2018-11-26T11:55:22.995Z,86.68
2018-11-26T11:57:52.057Z,86.71
2018-11-26T12:00:29.003Z,86.56
2018-11-26T12:02:57.585Z,85.54
2018-11-26T12:05:26.144Z,85.78
2018-11-26T12:07:54.699Z,85.73
2018-11-26T12:10:23.229Z,85.66
2018-11-26T12:12:51.858Z,85.87
2018-11-26T12:15:20.440Z,84.98
2018-11-26T12:17:50.486Z,85.36
2018-11-26T12:20:19.071Z,85.00
2018-11-26T12:22:47.580Z,85.19
2018-11-26T12:25:17.247Z,85.44
2018-11-26T12:27:45.841Z,84.85
2018-11-26T12:30:24.495Z,85.14
2018-11-26T12:32:53.040Z,85.18
2018-11-26T12:35:21.603Z,84.92
2018-11-26T12:37:50.286Z,84.92
2018-11-26T12:40:22.333Z,85.13
2018-11-26T12:42:52.248Z,84.44
2018-11-26T12:45:23.974Z,84.58
2018-11-26T12:47:52.698Z,84.70
2018-11-26T12:50:21.320Z,85.20
2018-11-26T12:52:49.947Z,85.56
2018-11-26T12:55:19.503Z,86.07
2018-11-26T12:57:49.076Z,85.70
2018-11-26T13:00:22.608Z,85.92
2018-11-26T13:02:56.584Z,86.01
2018-11-26T13:05:25.387Z,85.94
2018-11-26T13:07:55.218Z,85.82
2018-11-26T13:10:25.394Z,85.54
2018-11-26T13:12:54.188Z,85.76
2018-11-26T13:15:23.764Z,86.21
2018-11-26T13:17:52.309Z,85.60
2018-11-26T13:20:24.754Z,86.18
2018-11-26T13:22:53.609Z,85.64
2018-11-26T13:25:41.762Z,85.65
2018-11-26T13:28:08.507Z,86.40
2018-11-26T13:30:41.683Z,85.60
2018-11-26T13:33:13.678Z,85.45
2018-11-26T13:35:42.432Z,85.20
2018-11-26T13:38:11.008Z,85.45
2018-11-26T13:40:39.527Z,85.56
2018-11-26T13:43:09.916Z,85.48
2018-11-26T13:45:40.570Z,85.66
2018-11-26T13:48:10.377Z,86.53
2018-11-26T13:50:44.661Z,86.49
2018-11-26T13:53:13.963Z,85.62
2018-11-26T13:55:42.724Z,85.83
2018-11-26T13:58:11.231Z,85.84
2018-11-26T14:00:40.067Z,85.53
2018-11-26T14:03:08.933Z,85.99
2018-11-26T14:05:37.468Z,85.95
2018-11-26T14:08:06.090Z,86.41
2018-11-26T14:10:35.001Z,86.25
2018-11-26T14:13:10.120Z,86.31
2018-11-26T14:15:38.676Z,87.41
2018-11-26T14:18:12.606Z,86.59
2018-11-26T14:20:41.127Z,87.02
2018-11-26T14:23:09.698Z,86.50
2018-11-26T14:25:38.255Z,86.61
2018-11-26T14:28:06.769Z,86.39
2018-11-26T14:30:41.439Z,86.74
2018-11-26T14:33:10.580Z,86.79
2018-11-26T14:35:39.140Z,86.16
2018-11-26T14:38:09.365Z,85.75
2018-11-26T14:40:39.973Z,85.99
2018-11-26T14:43:08.784Z,86.92
2018-11-26T14:45:37.307Z,86.67
2018-11-26T14:48:06.291Z,87.41
2018-11-26T14:50:34.840Z,87.32
2018-11-26T14:53:06.266Z,86.67
2018-11-26T14:55:37.281Z,86.79
2018-11-26T14:58:06.039Z,86.97
2018-11-26T15:00:34.592Z,87.29
2018-11-26T15:03:03.143Z,87.43
2018-11-26T15:05:31.845Z,86.71
2018-11-26T15:08:00.362Z,87.27
2018-11-26T15:10:28.911Z,87.68
2018-11-26T15:12:57.561Z,87.21
2018-11-26T15:15:27.063Z,87.39
2018-11-26T15:17:55.608Z,87.29
2018-11-26T15:20:26.959Z,87.26
2018-11-26T15:22:56.523Z,87.76
2018-11-26T15:25:26.112Z,87.86
2018-11-26T15:28:05.322Z,87.00
2018-11-26T15:30:33.899Z,86.88
2018-11-26T15:33:02.431Z,87.33
2018-11-26T15:35:30.939Z,88.07
2018-11-26T15:37:59.496Z,88.13
2018-11-26T15:40:28.113Z,88.14
2018-11-26T15:42:56.604Z,87.77
2018-11-26T15:45:27.532Z,87.93
2018-11-26T15:47:58.437Z,88.13
2018-11-26T15:50:26.971Z,87.72
2018-11-26T15:52:55.501Z,87.66
2018-11-26T15:55:24.091Z,88.23
2018-11-26T15:57:52.619Z,87.43
2018-11-26T16:00:24.361Z,87.63
2018-11-26T16:02:53.262Z,87.81
2018-11-26T16:05:23.806Z,87.96
2018-11-26T16:07:52.613Z,88.58
2018-11-26T16:10:21.144Z,88.00
2018-11-26T16:12:51.476Z,88.33
2018-11-26T16:15:21.637Z,88.08
2018-11-26T16:17:50.700Z,88.25
2018-11-26T16:20:20.879Z,88.26
2018-11-26T16:22:50.017Z,88.60
2018-11-26T16:25:20.015Z,88.87
2018-11-26T16:27:48.531Z,88.80
2018-11-26T16:30:17.953Z,89.00
2018-11-26T16:32:51.842Z,88.74
2018-11-26T16:35:22.604Z,88.17
2018-11-26T16:37:51.115Z,88.06
2018-11-26T16:40:23.240Z,88.65
2018-11-26T16:42:52.067Z,88.70
2018-11-26T16:45:22.807Z,88.84
2018-11-26T16:47:52.455Z,87.96
2018-11-26T16:50:22.280Z,88.39
2018-11-26T16:52:51.732Z,88.18
2018-11-26T16:55:19.636Z,88.02
2018-11-26T16:57:48.163Z,88.49
2018-11-26T17:00:21.651Z,88.42
2018-11-26T17:02:51.457Z,88.61
2018-11-26T17:05:23.280Z,88.58
2018-11-26T17:07:51.809Z,88.83
2018-11-26T17:10:20.367Z,88.72
2018-11-26T17:12:48.855Z,88.35
2018-11-26T17:15:18.407Z,88.75
2018-11-26T17:17:46.998Z,88.26
2018-11-26T17:20:17.380Z,88.46
2018-11-26T17:22:45.904Z,89.06
2018-11-26T17:25:15.662Z,88.66
2018-11-26T17:27:44.744Z,88.80
2018-11-26T17:30:28.904Z,88.17
2018-11-26T17:33:00.403Z,88.93
2018-11-26T17:35:29.371Z,88.75
2018-11-26T17:37:57.899Z,89.02
2018-11-26T17:40:26.872Z,88.84
2018-11-26T17:42:55.764Z,88.78
2018-11-26T17:45:26.070Z,88.56
2018-11-26T17:47:56.809Z,88.09
2018-11-26T17:50:31.530Z,88.10
2018-11-26T17:53:00.035Z,88.16
2018-11-26T17:55:28.640Z,88.58
2018-11-26T17:57:57.204Z,88.25
2018-11-26T18:00:34.160Z,88.23
2018-11-26T18:03:03.234Z,88.31
2018-11-26T18:05:32.415Z,88.11
2018-11-26T18:08:13.404Z,88.09
2018-11-26T18:10:42.803Z,88.49
2018-11-26T18:13:11.300Z,88.19
2018-11-26T18:15:39.830Z,88.52
2018-11-26T18:18:13.135Z,88.17
2018-11-26T18:20:41.691Z,88.30
2018-11-26T18:23:10.785Z,88.18
2018-11-26T18:25:39.377Z,88.89
2018-11-26T18:28:10.139Z,88.80
2018-11-26T18:30:40.184Z,88.71
2018-11-26T18:33:08.742Z,88.64
2018-11-26T18:35:37.789Z,88.64
2018-11-26T18:38:07.260Z,88.06
2018-11-26T18:40:36.998Z,88.40
2018-11-26T18:43:07.454Z,88.33
2018-11-26T18:45:36.091Z,88.30
2018-11-26T18:48:04.636Z,88.33
2018-11-26T18:50:33.173Z,87.77
2018-11-26T18:53:01.652Z,88.32
2018-11-26T18:55:30.159Z,88.23
2018-11-26T18:57:58.656Z,88.41
2018-11-26T19:00:32.735Z,87.83
2018-11-26T19:03:01.239Z,87.83
2018-11-26T19:05:29.748Z,87.91
2018-11-26T19:07:58.248Z,88.04
2018-11-26T19:10:30.951Z,88.10
2018-11-26T19:13:03.324Z,87.41
2018-11-26T19:15:37.300Z,87.80
2018-11-26T19:18:15.711Z,87.49
2018-11-26T19:20:45.257Z,87.63
2018-11-26T19:23:13.759Z,87.47
2018-11-26T19:25:42.302Z,87.94
2018-11-26T19:28:10.793Z,88.27
2018-11-26T19:30:39.795Z,88.08
2018-11-26T19:33:09.312Z,88.52
2018-11-26T19:35:37.831Z,88.27
2018-11-26T19:38:07.562Z,87.90
2018-11-26T19:40:38.016Z,88.02
2018-11-26T19:43:07.402Z,87.87
2018-11-26T19:45:36.159Z,87.15
2018-11-26T19:48:05.071Z,87.82
2018-11-26T19:50:33.681Z,87.26
2018-11-26T19:53:02.403Z,88.04
2018-11-26T19:55:30.983Z,88.20
2018-11-26T19:57:59.576Z,87.95
2018-11-26T20:00:29.435Z,87.47
2018-11-26T20:03:17.598Z,87.83
2018-11-26T20:06:23.852Z,87.52
2018-11-26T20:08:54.346Z,87.79
2018-11-26T20:11:22.870Z,88.12
2018-11-26T20:13:51.352Z,88.04
2018-11-26T20:16:24.167Z,87.71
2018-11-26T20:18:52.642Z,87.35
2018-11-26T20:21:21.184Z,88.14
2018-11-26T20:23:49.663Z,87.97
2018-11-26T20:26:18.191Z,88.00
2018-11-26T20:28:46.676Z,88.04
2018-11-26T20:31:15.260Z,87.89
2018-11-26T20:33:43.791Z,87.82
2018-11-26T20:36:13.526Z,88.12
2018-11-26T20:38:42.024Z,87.92
2018-11-26T20:41:12.112Z,87.56
2018-11-26T20:43:40.853Z,87.70
2018-11-26T20:46:09.346Z,87.58
2018-11-26T20:48:37.878Z,87.21
2018-11-26T20:51:07.355Z,87.19
2018-11-26T20:53:36.218Z,87.15
2018-11-26T20:56:12.457Z,87.40
2018-11-26T20:58:41.030Z,88.08
2018-11-26T21:01:10.004Z,87.97
2018-11-26T21:03:38.543Z,87.47
2018-11-26T21:06:07.188Z,88.14
2018-11-26T21:08:35.718Z,87.76
2018-11-26T21:11:04.284Z,87.30
2018-11-26T21:13:38.223Z,87.25
2018-11-26T21:16:06.930Z,87.74
2018-11-26T21:18:35.488Z,87.67
2018-11-26T21:21:04.249Z,87.88
2018-11-26T21:23:33.695Z,87.60
2018-11-26T21:26:03.707Z,87.62
2018-11-26T21:28:32.235Z,87.94
2018-11-26T21:31:01.092Z,88.86
2018-11-26T21:33:29.322Z,88.09
2018-11-26T21:35:57.792Z,88.40
2018-11-26T21:38:26.302Z,88.36
2018-11-26T21:40:54.833Z,88.79
2018-11-26T21:43:23.383Z,88.83
2018-11-26T21:45:55.052Z,88.16
2018-11-26T21:48:23.568Z,88.23
2018-11-26T21:50:52.082Z,88.11
2018-11-26T21:53:20.743Z,88.12
2018-11-26T21:55:49.264Z,88.33
2018-11-26T21:58:17.783Z,88.60
2018-11-26T22:00:47.036Z,87.64
2018-11-26T22:03:15.833Z,87.66
2018-11-26T22:05:45.031Z,88.42
2018-11-26T22:08:13.792Z,88.82
2018-11-26T22:10:43.543Z,88.70
2018-11-26T22:13:13.584Z,88.81
2018-11-26T22:15:42.050Z,88.94
2018-11-26T22:18:10.569Z,88.58
2018-11-26T22:20:39.046Z,88.92
2018-11-26T22:23:08.532Z,89.36
2018-11-26T22:25:36.821Z,89.09
2018-11-26T22:28:06.841Z,89.77
2018-11-26T22:30:36.267Z,89.54
2018-11-26T22:33:04.827Z,90.16
2018-11-26T22:35:33.309Z,90.16
2018-11-26T22:38:01.819Z,90.37
2018-11-26T22:40:30.309Z,90.43
2018-11-26T22:42:58.836Z,90.15
2018-11-26T22:45:31.144Z,90.25
2018-11-26T22:48:14.352Z,90.39
2018-11-26T22:50:44.144Z,89.67
2018-11-26T22:53:12.768Z,90.10
2018-11-26T22:55:41.291Z,90.08
2018-11-26T22:58:11.148Z,90.56
2018-11-26T23:00:43.499Z,90.73
2018-11-26T23:03:14.823Z,90.68
2018-11-26T23:05:43.339Z,90.75
2018-11-26T23:08:11.874Z,90.78
2018-11-26T23:10:40.358Z,91.43
2018-11-26T23:13:09.510Z,91.61
2018-11-26T23:15:38.880Z,91.52
2018-11-26T23:18:07.337Z,91.30
2018-11-26T23:20:35.944Z,91.16
2018-11-26T23:23:04.456Z,91.54
2018-11-26T23:25:32.991Z,91.52
2018-11-26T23:28:01.456Z,91.81
2018-11-26T23:30:30.752Z,91.71
2018-11-26T23:33:01.154Z,91.99
2018-11-26T23:35:29.717Z,91.64
2018-11-26T23:37:58.263Z,91.76
2018-11-26T23:40:26.806Z,91.64
2018-11-26T23:42:55.312Z,91.91
2018-11-26T23:45:24.996Z,91.13
2018-11-26T23:47:53.487Z,91.28
2018-11-26T23:50:22.063Z,91.33
2018-11-26T23:52:50.570Z,91.34
2018-11-26T23:55:23.341Z,91.36
2018-11-26T23:57:51.863Z,91.09
